Beach, Georgia
Current Conditions -  °F | °C
As of 9:21 AM on Monday 22 Dec 2014 (Local Time) from KAMG Reporting Station
Haze Haze  
Wind Chill: 47°   Ceiling: 200
Heat Index: 49°   Visibility: 4mi
Dew Point: 48°   Wind: 5mph
Humidity: 97%   Direction: 50°NE
Pressure: 30.02"   Gusts: NA
Location:  31.4253°N, 82.5972°W
Report Text: KAMG 221421Z AUTO 05004KT 4SM BR OVC002 09/09 A3002 RMK AO2 T00940089
Loading
Personal Weather Stations






























Interactive Weather Map New forecast layout! Learn more

10-Day Weather Forecast

Advertisements
Track Severe Weather on mobile